Spar Hydra — LAKL7 — position and weather

sailwx.info

Track history (hours):
 
Tides and Currents Weather Stations Pressure Air Temp Water Temp Dewpoint Dewpoint Depression Visibility Wind Speed Wind Dir Waves Ship Positions

Spar Hydra

Last reported at 2015-May-20 20:31 UTC. Time now 2015-May-28 04:01 UTC.
Position N 02°01' E 102°12'.

Length 190 m; draft 11.2 m.

Type: Ship. MMSI: 259701000.

Date/timePositionNaut miles runAvg speedWind from/ knotsBaromVisibWave heightAir tempDewpointWater temp
2015-May-20 20:31N 02°01' E 102°12'1313.7
2015-May-20 19:32N 01°54' E 102°24'1413.7
2015-May-20 18:33N 01°48' E 102°36'1612.8
2015-May-20 17:17N 01°41' E 102°50'6611.4
2015-May-20 11:33N 01°11' E 103°49'9 9.2
2015-May-20 10:33N 01°16' E 103°56'1 1.0
2015-May-20 09:29N 01°17' E 103°56'0 0.1
2015-May-20 07:32N 01°17' E 103°56'0 0.1
2015-May-20 06:23N 01°17' E 103°56'0 0.0
2015-May-20 05:29N 01°17' E 103°56'0 0.0
2015-May-20 04:29N 01°17' E 103°56'0 0.1
2015-May-20 03:11N 01°17' E 103°56'0 0.1
2015-May-20 02:11N 01°17' E 103°56'0 0.1
2015-May-20 01:29N 01°17' E 103°56'0 0.0
2015-May-20 00:29N 01°17' E 103°56'0 0.1
2015-May-19 23:23N 01°17' E 103°56'0 0.1
2015-May-19 22:33N 01°17' E 103°56'3 2.7
2015-May-19 21:33N 01°16' E 103°59'5 4.6
2015-May-19 20:33N 01°16' E 104°03'9 9.1
2015-May-19 19:33N 01°18' E 104°13'  
2015-May-13 09:24N 25°14' E 120°39'24710.8
2015-May-12 10:33N 28°54' E 122°45'1010.2
2015-May-12 09:31N 29°04' E 122°48'1010.1
2015-May-12 08:30N 29°14' E 122°52'1010.0
2015-May-12 07:32N 29°23' E 122°57'1010.1
2015-May-12 06:33N 29°32' E 123°01'1010.2
2015-May-12 05:33N 29°42' E 123°05'1010.2
2015-May-12 04:33N 29°51' E 123°08'85 7.7
2015-May-11 17:32N 31°06' E 122°21'8 8.4
2015-May-11 16:33N 31°10' E 122°12'1010.2
2015-May-11 15:33N 31°14' E 122°02'1312.6
2015-May-11 14:33N 31°18' E 121°47'1110.7
2015-May-11 13:33N 31°23' E 121°36'7 6.7
2015-May-11 12:33N 31°26' E 121°29'6 6.3
2015-May-11 11:33N 31°30' E 121°23'1 0.7
2015-May-11 10:28N 31°30' E 121°23'0 0.0
2015-May-11 09:28N 31°30' E 121°23'0 0.0
2015-May-11 08:31N 31°30' E 121°23'0 0.0
2015-May-11 07:31N 31°30' E 121°23'0 0.0
2015-May-11 06:31N 31°30' E 121°23'0 0.0
2015-May-11 05:31N 31°30' E 121°23'0 0.0
2015-May-11 04:31N 31°30' E 121°23'0 0.0
2015-May-11 03:31N 31°30' E 121°23'0 0.0
2015-May-11 02:31N 31°30' E 121°23'0 0.0
2015-May-11 01:31N 31°30' E 121°23'0 0.0
2015-May-11 00:31N 31°30' E 121°23'0 0.0
2015-May-10 23:31N 31°30' E 121°23'0 0.1
2015-May-10 22:31N 31°30' E 121°23'0 0.1
2015-May-10 21:31N 31°30' E 121°23'  
Track history (hours):
 
Tides and Currents Weather Stations Pressure Air Temp Water Temp Dewpoint Dewpoint Depression Visibility Wind Speed Wind Dir Waves Ship Positions

Spar Hydra

Last reported at 2015-May-20 20:31 UTC. Time now 2015-May-28 04:01 UTC.
Position N 02°01' E 102°12'.

Length 190 m; draft 11.2 m.

Type: Ship. MMSI: 259701000.

Date/timePositionNaut miles runAvg speedWind from/ knotsBaromVisibWave heightAir tempDewpointWater temp
2015-May-20 20:31N 02°01' E 102°12'1313.7
2015-May-20 19:32N 01°54' E 102°24'1413.7
2015-May-20 18:33N 01°48' E 102°36'1612.8
2015-May-20 17:17N 01°41' E 102°50'6611.4
2015-May-20 11:33N 01°11' E 103°49'9 9.2
2015-May-20 10:33N 01°16' E 103°56'1 1.0
2015-May-20 09:29N 01°17' E 103°56'0 0.1
2015-May-20 07:32N 01°17' E 103°56'0 0.1
2015-May-20 06:23N 01°17' E 103°56'0 0.0
2015-May-20 05:29N 01°17' E 103°56'0 0.0
2015-May-20 04:29N 01°17' E 103°56'0 0.1
2015-May-20 03:11N 01°17' E 103°56'0 0.1
2015-May-20 02:11N 01°17' E 103°56'0 0.1
2015-May-20 01:29N 01°17' E 103°56'0 0.0
2015-May-20 00:29N 01°17' E 103°56'0 0.1
2015-May-19 23:23N 01°17' E 103°56'0 0.1
2015-May-19 22:33N 01°17' E 103°56'3 2.7
2015-May-19 21:33N 01°16' E 103°59'5 4.6
2015-May-19 20:33N 01°16' E 104°03'9 9.1
2015-May-19 19:33N 01°18' E 104°13'  
2015-May-13 09:24N 25°14' E 120°39'24710.8
2015-May-12 10:33N 28°54' E 122°45'1010.2
2015-May-12 09:31N 29°04' E 122°48'1010.1
2015-May-12 08:30N 29°14' E 122°52'1010.0
2015-May-12 07:32N 29°23' E 122°57'1010.1
2015-May-12 06:33N 29°32' E 123°01'1010.2
2015-May-12 05:33N 29°42' E 123°05'1010.2
2015-May-12 04:33N 29°51' E 123°08'85 7.7
2015-May-11 17:32N 31°06' E 122°21'8 8.4
2015-May-11 16:33N 31°10' E 122°12'1010.2
2015-May-11 15:33N 31°14' E 122°02'1312.6
2015-May-11 14:33N 31°18' E 121°47'1110.7
2015-May-11 13:33N 31°23' E 121°36'7 6.7
2015-May-11 12:33N 31°26' E 121°29'6 6.3
2015-May-11 11:33N 31°30' E 121°23'1 0.7
2015-May-11 10:28N 31°30' E 121°23'0 0.0
2015-May-11 09:28N 31°30' E 121°23'0 0.0
2015-May-11 08:31N 31°30' E 121°23'0 0.0
2015-May-11 07:31N 31°30' E 121°23'0 0.0
2015-May-11 06:31N 31°30' E 121°23'0 0.0
2015-May-11 05:31N 31°30' E 121°23'0 0.0
2015-May-11 04:31N 31°30' E 121°23'0 0.0
2015-May-11 03:31N 31°30' E 121°23'0 0.0
2015-May-11 02:31N 31°30' E 121°23'0 0.0
2015-May-11 01:31N 31°30' E 121°23'0 0.0
2015-May-11 00:31N 31°30' E 121°23'0 0.0
2015-May-10 23:31N 31°30' E 121°23'0 0.1
2015-May-10 22:31N 31°30' E 121°23'0 0.1
2015-May-10 21:31N 31°30' E 121°23'  

Dump ship's entire track history